Time;durP1;ratioP1;P1;durP2;ratioP2;P2;SDS_P1;SDS_P2;PMS_P1;PMS_P2;Temp;Humidity;BMP_temperature;BMP_pressure;BME280_temperature;BME280_humidity;BME280_pressure;Samples;Min_cycle;Max_cycle;Signal;HPM_P1;HPM_P2
2023/03/10 00:00:35;;;;;;;2.97;1.40;;;9.90;99.90;;;;;;4192084;28;20039;-73
2023/03/10 00:02:36;;;;;;;5.18;1.25;;;10.00;99.90;;;;;;4192850;28;20033;-73
2023/03/10 00:04:36;;;;;;;4.47;1.20;;;10.00;99.90;;;;;;4192306;28;20048;-73
2023/03/10 00:06:37;;;;;;;3.42;1.25;;;10.00;99.90;;;;;;4184418;28;20037;-72
2023/03/10 00:08:39;;;;;;;3.55;1.13;;;10.00;99.90;;;;;;4188445;28;20119;-72
2023/03/10 00:10:39;;;;;;;3.13;0.93;;;10.00;99.90;;;;;;4191307;28;20041;-73
2023/03/10 00:12:40;;;;;;;3.33;1.23;;;10.00;99.90;;;;;;4190021;28;20484;-72
2023/03/10 00:14:40;;;;;;;3.97;1.15;;;10.10;99.90;;;;;;4193576;28;20040;-72
2023/03/10 00:16:41;;;;;;;4.68;1.10;;;10.10;99.90;;;;;;4191020;28;20116;-73
2023/03/10 00:18:42;;;;;;;2.25;1.17;;;10.10;99.90;;;;;;4189488;28;20083;-73
2023/03/10 00:20:42;;;;;;;6.85;1.20;;;10.10;99.90;;;;;;4191594;28;20036;-73
2023/03/10 00:22:43;;;;;;;2.33;0.93;;;10.10;99.90;;;;;;4194314;28;20490;-73
2023/03/10 00:24:43;;;;;;;2.80;0.90;;;10.10;99.90;;;;;;4194076;28;20052;-73
2023/03/10 00:26:47;;;;;;;4.47;1.17;;;10.20;99.90;;;;;;4191116;28;20040;-73
2023/03/10 00:28:48;;;;;;;3.85;1.25;;;10.20;99.90;;;;;;4192055;28;20097;-73
2023/03/10 00:31:00;;;;;;;2.05;0.93;;;10.20;99.90;;;;;;4191590;28;20411;-73
2023/03/10 00:33:01;;;;;;;3.53;1.02;;;10.30;99.90;;;;;;4190976;28;20471;-73
2023/03/10 00:35:02;;;;;;;1.90;0.80;;;10.30;99.90;;;;;;4188315;28;20040;-73
2023/03/10 00:37:03;;;;;;;1.50;0.75;;;10.30;99.90;;;;;;4190855;28;20033;-73
2023/03/10 00:39:04;;;;;;;2.83;0.82;;;10.40;99.90;;;;;;4183770;28;20461;-73
2023/03/10 00:41:10;;;;;;;1.42;0.65;;;10.30;99.90;;;;;;4181632;28;20108;-73
2023/03/10 00:43:11;;;;;;;1.85;0.73;;;10.30;99.90;;;;;;4191977;28;20056;-73
2023/03/10 00:45:11;;;;;;;1.08;0.50;;;10.40;99.90;;;;;;4192648;28;20036;-74
2023/03/10 00:47:12;;;;;;;3.65;0.63;;;10.40;99.90;;;;;;4190771;28;20086;-73
2023/03/10 00:49:15;;;;;;;1.77;0.60;;;10.30;99.90;;;;;;4188892;28;20040;-74
2023/03/10 00:51:16;;;;;;;1.13;0.55;;;10.30;99.90;;;;;;4190208;28;20052;-73
2023/03/10 00:53:17;;;;;;;0.82;0.50;;;10.30;99.90;;;;;;4193347;28;20040;-73
2023/03/10 00:55:18;;;;;;;1.85;0.65;;;10.30;99.90;;;;;;4189805;28;20468;-73
2023/03/10 00:57:18;;;;;;;3.03;0.70;;;10.30;99.90;;;;;;4190703;28;20174;-74
2023/03/10 00:59:19;;;;;;;2.72;0.70;;;10.30;99.90;;;;;;4178350;28;20117;-73
2023/03/10 01:01:23;;;;;;;1.52;0.60;;;10.30;99.90;;;;;;4189622;28;20039;-73
2023/03/10 01:03:25;;;;;;;0.47;0.20;;;10.20;99.90;;;;;;4192944;28;20036;-73
2023/03/10 01:05:27;;;;;;;1.10;0.47;;;10.20;99.90;;;;;;4190286;28;20408;-73
2023/03/10 01:07:28;;;;;;;0.90;0.35;;;10.20;99.90;;;;;;4191226;28;20467;-73
2023/03/10 01:09:28;;;;;;;0.77;0.47;;;10.20;99.90;;;;;;4190592;28;20067;-70
2023/03/10 01:11:30;;;;;;;0.63;0.30;;;10.20;99.90;;;;;;4190035;28;20463;-72
2023/03/10 01:13:30;;;;;;;0.55;0.30;;;10.20;99.90;;;;;;4191228;28;20545;-73
2023/03/10 01:15:31;;;;;;;1.02;0.40;;;10.20;99.90;;;;;;4191092;28;20082;-73
2023/03/10 01:17:32;;;;;;;0.68;0.35;;;10.10;99.90;;;;;;4192686;28;20032;-73
2023/03/10 01:19:32;;;;;;;0.93;0.28;;;10.20;99.90;;;;;;4190517;28;20495;-73
2023/03/10 01:21:35;;;;;;;1.10;0.30;;;10.20;99.90;;;;;;4185310;28;20033;-73
2023/03/10 01:23:36;;;;;;;0.50;0.30;;;10.10;99.90;;;;;;4188877;28;20042;-74
2023/03/10 01:25:36;;;;;;;2.65;0.38;;;10.20;99.90;;;;;;4187291;28;20451;-74
2023/03/10 01:27:37;;;;;;;0.77;0.13;;;10.20;99.90;;;;;;4189733;28;20472;-73
2023/03/10 01:29:37;;;;;;;0.35;0.20;;;10.20;99.90;;;;;;4188911;28;20031;-73
2023/03/10 01:31:39;;;;;;;0.55;0.40;;;10.20;99.90;;;;;;4190718;28;20037;-73
2023/03/10 01:33:41;;;;;;;0.77;0.30;;;10.20;99.90;;;;;;4192062;28;20423;-73
2023/03/10 01:35:42;;;;;;;1.38;0.50;;;10.10;99.90;;;;;;4182776;28;20390;-73
2023/03/10 01:37:43;;;;;;;0.50;0.22;;;10.20;99.90;;;;;;4193150;28;20483;-73
2023/03/10 01:39:43;;;;;;;3.38;0.55;;;10.20;99.90;;;;;;4187915;28;20075;-73
2023/03/10 01:41:44;;;;;;;0.90;0.30;;;10.20;99.90;;;;;;4186194;28;20036;-74
2023/03/10 01:43:47;;;;;;;3.15;0.40;;;10.20;99.90;;;;;;4191896;28;20086;-71
2023/03/10 01:45:51;;;;;;;0.73;0.35;;;10.20;99.90;;;;;;4189844;28;20044;-74
2023/03/10 01:47:51;;;;;;;0.35;0.17;;;10.20;99.90;;;;;;4192614;28;20035;-74
2023/03/10 01:49:52;;;;;;;0.82;0.30;;;10.20;99.90;;;;;;4188951;28;20056;-74
2023/03/10 01:51:58;;;;;;;0.90;0.38;;;10.20;99.90;;;;;;4190177;28;20036;-73
2023/03/10 01:54:03;;;;;;;1.58;0.93;;;10.20;99.90;;;;;;4192264;28;20052;-73
2023/03/10 01:56:05;;;;;;;1.17;0.40;;;10.20;99.90;;;;;;4180763;28;20036;-73
2023/03/10 01:58:07;;;;;;;1.58;0.63;;;10.20;99.90;;;;;;4192099;28;20040;-73
2023/03/10 02:00:12;;;;;;;0.98;0.80;;;10.20;99.90;;;;;;4187652;28;20032;-73
2023/03/10 02:02:12;;;;;;;1.15;0.70;;;10.20;99.90;;;;;;4191815;28;20036;-73
2023/03/10 02:04:28;;;;;;;1.92;0.73;;;10.20;99.90;;;;;;4193112;28;20055;-73
2023/03/10 02:06:29;;;;;;;2.13;0.70;;;10.20;99.90;;;;;;4188066;28;20120;-73
2023/03/10 02:08:36;;;;;;;0.85;0.60;;;10.20;99.90;;;;;;4190895;28;20049;-71
2023/03/10 02:10:38;;;;;;;0.77;0.60;;;10.20;99.90;;;;;;4185502;28;20033;-73
2023/03/10 02:12:38;;;;;;;1.15;0.70;;;10.20;99.90;;;;;;4186012;28;20064;-73
2023/03/10 02:14:39;;;;;;;1.67;0.68;;;10.20;99.90;;;;;;4193063;28;20537;-73
2023/03/10 02:16:40;;;;;;;1.95;1.05;;;10.20;99.90;;;;;;4186139;28;20566;-73
2023/03/10 02:18:43;;;;;;;1.30;0.65;;;10.20;99.90;;;;;;4190812;28;20052;-73
2023/03/10 02:21:11;;;;;;;1.00;0.57;;;10.20;99.90;;;;;;4186277;28;20045;-73
2023/03/10 02:23:21;;;;;;;1.30;0.55;;;10.20;99.90;;;;;;4193740;28;20029;-74
2023/03/10 02:25:48;;;;;;;1.23;0.70;;;10.20;99.90;;;;;;4198372;28;20040;-73
2023/03/10 02:27:49;;;;;;;0.90;0.70;;;10.20;99.90;;;;;;4189551;28;20037;-74
2023/03/10 02:30:08;;;;;;;1.17;0.70;;;10.20;99.90;;;;;;4185576;28;20048;-74
2023/03/10 02:32:10;;;;;;;1.42;0.85;;;10.20;99.90;;;;;;4194656;28;20115;-74
2023/03/10 02:34:11;;;;;;;0.80;0.80;;;10.20;99.90;;;;;;4196056;28;20132;-73
2023/03/10 02:36:21;;;;;;;1.13;0.70;;;10.20;99.90;;;;;;4188872;28;20048;-74
2023/03/10 02:38:22;;;;;;;1.30;0.90;;;10.20;99.90;;;;;;4188668;28;20032;-74
2023/03/10 02:40:43;;;;;;;1.45;1.00;;;10.20;99.90;;;;;;4194395;28;20043;-74
2023/03/10 02:42:44;;;;;;;2.53;0.70;;;10.20;99.90;;;;;;4193213;28;20510;-74
2023/03/10 02:44:46;;;;;;;1.17;0.63;;;10.20;99.90;;;;;;4194085;28;20036;-73
2023/03/10 02:46:47;;;;;;;1.30;0.82;;;10.20;99.90;;;;;;4192757;28;20043;-73
2023/03/10 02:48:48;;;;;;;0.88;0.70;;;10.20;99.90;;;;;;4192403;28;20484;-73
2023/03/10 02:50:49;;;;;;;2.30;1.00;;;10.10;99.90;;;;;;4190424;28;20090;-73
2023/03/10 02:53:02;;;;;;;5.25;0.93;;;10.20;99.90;;;;;;4194928;28;21939;-73
2023/03/10 02:55:03;;;;;;;1.13;0.85;;;10.20;99.90;;;;;;4194307;28;20058;-73
2023/03/10 02:57:04;;;;;;;2.28;1.00;;;10.20;99.90;;;;;;4192775;28;20037;-72
2023/03/10 02:59:06;;;;;;;1.23;0.90;;;10.20;99.90;;;;;;4191441;28;20038;-73
2023/03/10 03:01:07;;;;;;;2.08;0.98;;;10.20;99.90;;;;;;4194806;28;20029;-73
2023/03/10 03:03:09;;;;;;;1.63;1.10;;;10.20;99.90;;;;;;4192354;28;20032;-73
2023/03/10 03:05:10;;;;;;;1.27;0.88;;;10.20;99.90;;;;;;4192521;28;20074;-74
2023/03/10 03:07:11;;;;;;;4.18;1.05;;;10.20;99.90;;;;;;4190748;28;20470;-73
2023/03/10 03:09:11;;;;;;;2.97;1.02;;;10.20;99.90;;;;;;4192713;28;20495;-73
2023/03/10 03:11:12;;;;;;;1.63;0.80;;;10.30;99.90;;;;;;4193772;28;20036;-73
2023/03/10 03:13:13;;;;;;;1.90;0.80;;;10.30;99.90;;;;;;4189894;28;20032;-73
2023/03/10 03:15:14;;;;;;;5.18;1.40;;;10.30;99.90;;;;;;4192984;28;20052;-73
2023/03/10 03:17:14;;;;;;;1.70;0.85;;;10.30;99.90;;;;;;4185316;28;20070;-74
2023/03/10 03:19:15;;;;;;;2.08;0.82;;;10.30;99.90;;;;;;4193253;28;20111;-72
2023/03/10 03:21:16;;;;;;;3.75;1.10;;;10.20;99.90;;;;;;4193954;28;20433;-73
2023/03/10 03:23:16;;;;;;;0.90;0.60;;;10.20;99.90;;;;;;4193305;28;20043;-73
2023/03/10 03:25:20;;;;;;;3.45;1.00;;;10.30;99.90;;;;;;4193473;28;20475;-73
2023/03/10 03:27:20;;;;;;;1.83;0.68;;;10.20;99.90;;;;;;4191909;28;20032;-74
2023/03/10 03:29:21;;;;;;;2.33;0.95;;;10.20;99.90;;;;;;4193505;28;20044;-74
2023/03/10 03:31:23;;;;;;;6.57;1.45;;;10.30;99.90;;;;;;4193166;28;20063;-73
2023/03/10 03:33:24;;;;;;;4.75;1.15;;;10.30;99.90;;;;;;4194478;28;20390;-73
2023/03/10 03:35:31;;;;;;;2.80;1.10;;;10.30;99.90;;;;;;4192321;28;20044;-73
2023/03/10 03:37:32;;;;;;;2.15;0.88;;;10.30;99.90;;;;;;4192956;28;20497;-73
2023/03/10 03:39:32;;;;;;;3.40;1.10;;;10.30;99.90;;;;;;4192757;28;20127;-73
2023/03/10 03:41:33;;;;;;;3.92;1.17;;;10.20;99.90;;;;;;4190658;28;20398;-74
2023/03/10 03:43:34;;;;;;;3.47;1.10;;;10.20;99.90;;;;;;4194214;28;20029;-74
2023/03/10 03:45:34;;;;;;;4.18;0.90;;;10.20;99.90;;;;;;4192376;28;26020;-73
2023/03/10 03:47:35;;;;;;;3.22;1.00;;;10.30;99.90;;;;;;4191434;28;20372;-74
2023/03/10 03:49:37;;;;;;;4.57;1.38;;;10.30;99.90;;;;;;4191105;28;20024;-74
2023/03/10 03:51:37;;;;;;;3.25;0.77;;;10.30;99.90;;;;;;4191724;28;20068;-74
2023/03/10 03:53:38;;;;;;;2.88;1.08;;;10.30;99.90;;;;;;4189201;28;20037;-74
2023/03/10 03:55:39;;;;;;;5.97;1.42;;;10.30;99.90;;;;;;4190573;28;20361;-74
2023/03/10 03:57:39;;;;;;;5.25;1.65;;;10.30;99.90;;;;;;4194497;28;20047;-74
2023/03/10 03:59:40;;;;;;;3.90;1.40;;;10.30;99.90;;;;;;4193358;28;20121;-74
2023/03/10 04:01:40;;;;;;;2.00;1.02;;;10.30;99.90;;;;;;4193266;28;20067;-73
2023/03/10 04:03:41;;;;;;;4.60;1.40;;;10.30;99.90;;;;;;4191085;28;20045;-73
2023/03/10 04:05:43;;;;;;;5.18;1.23;;;10.30;99.90;;;;;;4191104;28;20087;-74
2023/03/10 04:07:44;;;;;;;3.10;1.23;;;10.30;99.90;;;;;;4189612;28;20149;-74
2023/03/10 04:09:45;;;;;;;3.38;1.10;;;10.30;99.90;;;;;;4191258;28;20115;-72
2023/03/10 04:11:46;;;;;;;1.40;0.93;;;10.30;99.90;;;;;;4192950;28;20379;-73
2023/03/10 04:13:46;;;;;;;4.97;1.42;;;10.30;99.90;;;;;;4192993;28;20037;-74
2023/03/10 04:15:47;;;;;;;4.00;1.20;;;10.30;99.90;;;;;;4190483;28;20036;-74
2023/03/10 04:17:47;;;;;;;6.13;1.48;;;10.30;99.90;;;;;;4193610;28;20029;-73
2023/03/10 04:19:48;;;;;;;4.00;1.35;;;10.30;99.90;;;;;;4190459;28;20097;-73
2023/03/10 04:21:49;;;;;;;2.42;1.05;;;10.30;99.90;;;;;;4187932;28;20376;-73
2023/03/10 04:23:49;;;;;;;3.78;1.00;;;10.30;99.90;;;;;;4191658;28;20386;-73
2023/03/10 04:25:50;;;;;;;3.58;1.15;;;10.30;99.90;;;;;;4190803;28;20045;-74
2023/03/10 04:27:51;;;;;;;3.90;1.00;;;10.30;99.90;;;;;;4188771;28;20028;-74
2023/03/10 04:29:51;;;;;;;2.60;1.02;;;10.30;99.90;;;;;;4192013;28;20051;-73
2023/03/10 04:31:52;;;;;;;5.75;1.30;;;10.30;99.90;;;;;;4191702;28;20047;-74
2023/03/10 04:33:52;;;;;;;2.28;1.00;;;10.30;99.90;;;;;;4192117;28;20107;-74
2023/03/10 04:35:53;;;;;;;3.65;1.10;;;10.20;99.90;;;;;;4188673;28;20071;-74
2023/03/10 04:37:54;;;;;;;2.75;1.23;;;10.30;99.90;;;;;;4192101;28;20422;-74
2023/03/10 04:39:56;;;;;;;2.28;0.98;;;10.20;99.90;;;;;;4191835;28;20421;-74
2023/03/10 04:41:56;;;;;;;2.17;1.00;;;10.20;99.90;;;;;;4191907;28;20462;-74
2023/03/10 04:43:57;;;;;;;2.33;1.10;;;10.20;99.90;;;;;;4185169;28;20083;-74
2023/03/10 04:45:58;;;;;;;2.75;1.30;;;10.20;99.90;;;;;;4186862;28;20476;-74
2023/03/10 04:47:58;;;;;;;3.58;1.15;;;10.20;99.90;;;;;;4192844;28;20028;-74
2023/03/10 04:49:59;;;;;;;2.42;1.30;;;10.10;99.90;;;;;;4191467;28;20044;-74
2023/03/10 04:51:59;;;;;;;3.20;1.10;;;10.10;99.90;;;;;;4182313;28;20534;-74
2023/03/10 04:54:00;;;;;;;5.78;1.05;;;10.10;99.90;;;;;;4189601;28;20024;-74
2023/03/10 04:56:03;;;;;;;2.40;1.08;;;10.10;99.90;;;;;;4189352;28;20035;-74
2023/03/10 04:58:04;;;;;;;2.10;1.00;;;10.10;99.90;;;;;;4191351;28;20498;-73
2023/03/10 05:00:06;;;;;;;3.53;0.95;;;10.10;99.90;;;;;;4185844;28;20048;-74
2023/03/10 05:02:07;;;;;;;5.63;1.52;;;10.00;99.90;;;;;;4190144;28;20044;-74
2023/03/10 05:04:09;;;;;;;4.63;1.13;;;10.00;99.90;;;;;;4191068;28;20049;-74
2023/03/10 05:06:15;;;;;;;1.83;1.23;;;10.00;99.90;;;;;;4188236;28;20091;-74
2023/03/10 05:08:16;;;;;;;4.10;1.35;;;10.00;99.90;;;;;;4190366;28;20114;-74
2023/03/10 05:10:17;;;;;;;2.60;1.10;;;10.00;99.90;;;;;;4188590;28;20470;-73
2023/03/10 05:12:18;;;;;;;3.15;1.45;;;9.90;99.90;;;;;;4192129;28;20028;-73
2023/03/10 05:14:18;;;;;;;1.70;0.90;;;9.90;99.90;;;;;;4192257;28;20032;-74
2023/03/10 05:16:21;;;;;;;7.90;1.30;;;9.90;99.90;;;;;;4189750;28;20037;-74
2023/03/10 05:18:21;;;;;;;3.22;1.40;;;9.90;99.90;;;;;;4188351;28;20064;-74
2023/03/10 05:20:22;;;;;;;2.42;1.10;;;9.90;99.90;;;;;;4188959;28;20032;-74
2023/03/10 05:22:22;;;;;;;2.50;0.98;;;9.80;99.90;;;;;;4193418;28;20066;-74
2023/03/10 05:24:23;;;;;;;4.65;1.45;;;9.80;99.90;;;;;;4190014;28;20040;-74
2023/03/10 05:26:24;;;;;;;4.10;1.15;;;9.80;99.90;;;;;;4189163;28;20162;-74
2023/03/10 05:28:24;;;;;;;2.88;1.50;;;9.80;99.90;;;;;;4194212;28;20563;-75
2023/03/10 05:30:25;;;;;;;6.97;2.10;;;9.80;99.90;;;;;;4186698;28;20039;-75
2023/03/10 05:32:26;;;;;;;5.15;1.60;;;9.70;99.90;;;;;;4190698;28;20056;-74
2023/03/10 05:34:26;;;;;;;5.57;1.80;;;9.70;99.90;;;;;;4192734;28;20036;-74
2023/03/10 05:36:27;;;;;;;4.55;1.95;;;9.60;99.90;;;;;;4189004;28;20383;-75
2023/03/10 05:38:27;;;;;;;5.35;2.35;;;9.70;99.90;;;;;;4190718;28;20082;-74
2023/03/10 05:40:28;;;;;;;5.68;2.03;;;9.60;99.90;;;;;;4189341;28;20433;-74
2023/03/10 05:42:29;;;;;;;6.88;1.70;;;9.60;99.90;;;;;;4187479;28;20507;-75
2023/03/10 05:44:29;;;;;;;6.47;1.73;;;9.60;99.90;;;;;;4192831;28;20550;-75
2023/03/10 05:46:30;;;;;;;4.28;1.30;;;9.60;99.90;;;;;;4188528;28;20056;-75
2023/03/10 05:48:31;;;;;;;7.00;2.20;;;9.60;99.90;;;;;;4191418;28;20033;-74
2023/03/10 05:50:31;;;;;;;8.68;2.28;;;9.60;99.90;;;;;;4180192;28;20040;-74
2023/03/10 05:52:38;;;;;;;8.35;2.58;;;9.60;99.90;;;;;;4197462;28;20067;-75
2023/03/10 05:54:39;;;;;;;8.63;2.42;;;9.60;99.90;;;;;;4190944;28;20056;-75
2023/03/10 05:56:40;;;;;;;8.40;2.30;;;9.60;99.90;;;;;;4192837;28;20041;-74
2023/03/10 05:58:41;;;;;;;5.97;2.13;;;9.50;99.90;;;;;;4195907;28;20037;-72
2023/03/10 06:00:42;;;;;;;6.00;1.98;;;9.60;99.90;;;;;;4192429;28;20051;-73
2023/03/10 06:02:42;;;;;;;6.65;2.25;;;9.50;99.90;;;;;;4184601;28;20044;-73
2023/03/10 06:04:43;;;;;;;5.50;2.00;;;9.50;99.90;;;;;;4193856;28;20064;-73
2023/03/10 06:06:43;;;;;;;4.85;1.90;;;9.60;99.90;;;;;;4188342;28;20051;-73
2023/03/10 06:08:44;;;;;;;8.13;2.33;;;9.50;99.90;;;;;;4181639;28;20068;-72
2023/03/10 06:10:45;;;;;;;10.13;2.90;;;9.50;99.90;;;;;;4183868;28;21126;-73
2023/03/10 06:12:45;;;;;;;7.45;2.30;;;9.50;99.90;;;;;;4180272;28;20037;-73
2023/03/10 06:14:46;;;;;;;8.55;2.45;;;9.60;99.90;;;;;;4177517;28;20090;-71
2023/03/10 06:16:50;;;;;;;4.75;1.80;;;9.60;99.90;;;;;;4187189;28;20040;-72
2023/03/10 06:18:55;;;;;;;5.53;1.83;;;9.60;99.90;;;;;;4187551;28;20415;-72
2023/03/10 06:20:56;;;;;;;5.45;1.67;;;9.60;99.90;;;;;;4189790;28;20029;-72
2023/03/10 06:22:56;;;;;;;7.03;1.98;;;9.60;99.90;;;;;;4185100;28;20122;-72
2023/03/10 06:24:57;;;;;;;9.35;2.65;;;9.60;99.90;;;;;;4187003;28;20056;-73
2023/03/10 06:26:57;;;;;;;8.30;2.25;;;9.60;99.90;;;;;;4189212;28;20372;-73
2023/03/10 06:28:58;;;;;;;9.45;2.15;;;9.60;99.90;;;;;;4183407;28;20037;-69
2023/03/10 06:31:08;;;;;;;7.10;1.83;;;9.60;99.90;;;;;;4186326;28;20029;-69
2023/03/10 06:33:08;;;;;;;8.35;1.95;;;9.60;99.90;;;;;;4189773;28;20041;-68
2023/03/10 06:35:12;;;;;;;6.70;1.90;;;9.60;99.90;;;;;;4190442;28;20093;-70
2023/03/10 06:37:12;;;;;;;17.65;3.42;;;9.70;99.90;;;;;;4192120;28;20033;-73
2023/03/10 06:39:13;;;;;;;10.95;3.10;;;9.70;99.90;;;;;;4189285;28;20044;-73
2023/03/10 06:41:15;;;;;;;10.30;2.70;;;9.70;99.90;;;;;;4191194;28;20098;-73
2023/03/10 06:43:16;;;;;;;5.95;2.13;;;9.70;99.90;;;;;;4189750;28;20043;-72
2023/03/10 06:45:17;;;;;;;5.43;1.60;;;9.70;99.90;;;;;;4188630;28;20143;-73
2023/03/10 06:47:17;;;;;;;6.40;1.70;;;9.80;99.90;;;;;;4190596;28;20040;-73
2023/03/10 06:49:18;;;;;;;4.40;1.48;;;9.80;99.90;;;;;;4190994;28;20106;-73
2023/03/10 06:51:20;;;;;;;6.30;2.03;;;9.80;99.90;;;;;;4191186;28;20041;-73
2023/03/10 06:53:21;;;;;;;8.25;2.13;;;9.80;99.90;;;;;;4190424;28;20028;-73
2023/03/10 06:55:21;;;;;;;4.93;1.50;;;9.80;99.90;;;;;;4191320;28;20128;-73
2023/03/10 06:57:22;;;;;;;8.15;2.10;;;9.80;99.90;;;;;;4190425;28;20068;-73
2023/03/10 06:59:22;;;;;;;6.30;2.08;;;9.80;99.90;;;;;;4187642;28;20070;-73
2023/03/10 07:01:31;;;;;;;7.47;2.17;;;9.80;99.90;;;;;;4185720;28;23127;-73
2023/03/10 07:03:33;;;;;;;5.95;2.00;;;9.80;99.90;;;;;;4188578;28;20145;-73
2023/03/10 07:05:34;;;;;;;6.57;1.63;;;9.90;99.90;;;;;;4187668;28;20503;-73
2023/03/10 07:07:34;;;;;;;6.47;1.55;;;9.90;99.90;;;;;;4186237;28;20036;-71
2023/03/10 07:09:35;;;;;;;5.55;1.50;;;9.90;99.90;;;;;;4187398;28;20044;-71
2023/03/10 07:11:36;;;;;;;4.13;1.65;;;9.90;99.90;;;;;;4185884;28;20478;-72
2023/03/10 07:13:37;;;;;;;7.43;1.98;;;9.90;99.90;;;;;;4187842;28;20041;-73
2023/03/10 07:15:38;;;;;;;6.00;1.85;;;9.90;99.90;;;;;;4186648;28;20123;-72
2023/03/10 07:17:38;;;;;;;4.07;1.90;;;9.90;99.90;;;;;;4190065;28;20072;-73
2023/03/10 07:19:39;;;;;;;5.57;2.05;;;9.90;99.90;;;;;;4189785;28;20045;-72
2023/03/10 07:21:40;;;;;;;6.20;2.67;;;9.90;99.90;;;;;;4190240;28;20044;-72
2023/03/10 07:23:40;;;;;;;7.65;3.05;;;10.00;99.90;;;;;;4189415;28;20382;-73
2023/03/10 07:25:41;;;;;;;13.98;3.03;;;9.90;99.90;;;;;;4188404;28;20048;-72
2023/03/10 07:27:41;;;;;;;8.98;2.00;;;10.00;99.90;;;;;;4190618;28;20044;-73
2023/03/10 07:29:42;;;;;;;6.82;1.77;;;9.90;99.90;;;;;;4189182;28;20454;-72
2023/03/10 07:31:43;;;;;;;4.93;1.95;;;10.00;99.90;;;;;;4187168;28;20041;-72
2023/03/10 07:33:44;;;;;;;7.03;2.22;;;10.00;99.90;;;;;;4189771;28;20163;-72
2023/03/10 07:35:45;;;;;;;8.07;2.28;;;10.00;99.90;;;;;;4189796;28;20178;-72
2023/03/10 07:37:45;;;;;;;7.78;2.03;;;10.00;99.90;;;;;;4189665;28;20056;-72
2023/03/10 07:39:46;;;;;;;7.53;2.13;;;10.00;99.90;;;;;;4189541;28;20063;-72
2023/03/10 07:41:47;;;;;;;6.22;1.98;;;10.00;99.90;;;;;;4188602;28;20036;-72
2023/03/10 07:43:52;;;;;;;5.88;1.92;;;10.10;99.90;;;;;;4187560;28;20074;-72
2023/03/10 07:45:52;;;;;;;6.53;1.80;;;10.00;99.90;;;;;;4178777;28;20053;-72
2023/03/10 07:47:53;;;;;;;4.95;1.50;;;10.10;99.90;;;;;;4188192;28;20086;-72
2023/03/10 07:49:54;;;;;;;5.78;1.40;;;10.10;99.90;;;;;;4182099;28;20045;-73
2023/03/10 07:51:54;;;;;;;4.97;1.75;;;10.10;99.90;;;;;;4186725;28;20049;-73
2023/03/10 07:53:55;;;;;;;7.95;1.75;;;10.10;99.90;;;;;;4189237;28;20028;-73
2023/03/10 07:55:56;;;;;;;8.65;2.13;;;10.10;99.90;;;;;;4186266;28;20051;-73
2023/03/10 07:57:59;;;;;;;4.78;1.50;;;10.10;99.90;;;;;;4190506;28;20033;-72
2023/03/10 07:59:59;;;;;;;4.70;1.25;;;10.10;99.90;;;;;;4174506;28;20434;-73
2023/03/10 08:02:00;;;;;;;5.07;1.60;;;10.10;99.90;;;;;;4185174;28;20036;-73
2023/03/10 08:04:00;;;;;;;8.73;1.73;;;10.10;99.90;;;;;;4189630;28;20032;-72
2023/03/10 08:06:04;;;;;;;7.32;1.90;;;10.10;99.90;;;;;;4189662;28;20061;-72
2023/03/10 08:08:05;;;;;;;5.53;1.70;;;10.10;99.90;;;;;;4187528;28;20040;-72
2023/03/10 08:10:06;;;;;;;5.20;1.85;;;10.10;99.90;;;;;;4180125;28;21449;-71
2023/03/10 08:12:07;;;;;;;3.17;1.33;;;10.20;99.90;;;;;;4185212;28;20308;-72
2023/03/10 08:14:08;;;;;;;5.22;1.58;;;10.20;99.90;;;;;;4184855;28;20044;-72
2023/03/10 08:16:08;;;;;;;4.68;1.48;;;10.10;99.90;;;;;;4186649;28;20119;-72
2023/03/10 08:18:09;;;;;;;6.20;2.03;;;10.20;99.90;;;;;;4189570;28;20043;-72
2023/03/10 08:20:12;;;;;;;7.50;1.73;;;10.20;99.90;;;;;;4180456;28;20048;-73
2023/03/10 08:22:13;;;;;;;8.10;1.88;;;10.20;99.90;;;;;;4189296;28;20399;-72
2023/03/10 08:24:13;;;;;;;8.07;1.88;;;10.20;99.90;;;;;;4188541;28;20037;-72
2023/03/10 08:26:16;;;;;;;5.15;1.65;;;10.20;99.90;;;;;;4187278;28;20033;-72
2023/03/10 08:28:17;;;;;;;5.07;1.70;;;10.20;99.90;;;;;;4190013;28;20127;-72
2023/03/10 08:30:17;;;;;;;8.32;1.83;;;10.20;99.90;;;;;;4186657;28;20055;-72
2023/03/10 08:32:18;;;;;;;11.55;2.10;;;10.20;99.90;;;;;;4190235;28;20037;-72
2023/03/10 08:34:19;;;;;;;4.93;1.85;;;10.30;99.90;;;;;;4190229;28;20411;-72
2023/03/10 08:36:22;;;;;;;5.20;1.58;;;10.40;99.90;;;;;;4187701;28;20036;-72
2023/03/10 08:38:23;;;;;;;5.15;1.45;;;10.40;99.90;;;;;;4189782;28;20037;-72
2023/03/10 08:40:24;;;;;;;4.57;1.58;;;10.50;99.90;;;;;;4186332;28;20033;-72
2023/03/10 08:42:25;;;;;;;6.25;2.00;;;10.60;99.90;;;;;;4188674;28;20052;-72
2023/03/10 08:44:26;;;;;;;6.25;2.22;;;10.60;99.90;;;;;;4188832;28;20044;-72
2023/03/10 08:46:28;;;;;;;8.07;2.35;;;10.70;99.90;;;;;;4184654;28;20394;-73
2023/03/10 08:48:29;;;;;;;10.27;2.28;;;10.80;99.90;;;;;;4191423;28;20029;-72
2023/03/10 08:50:29;;;;;;;7.55;1.92;;;10.90;99.90;;;;;;4186614;28;20039;-73
2023/03/10 08:52:30;;;;;;;5.13;1.88;;;11.00;99.90;;;;;;4187115;28;20112;-73
2023/03/10 08:54:31;;;;;;;9.32;2.17;;;11.20;99.90;;;;;;4189306;28;20051;-73
2023/03/10 08:56:31;;;;;;;4.88;1.63;;;11.30;99.90;;;;;;4186614;28;20036;-73
2023/03/10 08:58:32;;;;;;;7.22;2.25;;;11.40;99.90;;;;;;4186701;28;20036;-73
2023/03/10 09:00:33;;;;;;;6.07;2.05;;;11.40;99.90;;;;;;4186884;28;20106;-72
2023/03/10 09:02:33;;;;;;;7.03;2.00;;;11.50;99.90;;;;;;4189408;28;20037;-72
2023/03/10 09:04:34;;;;;;;5.55;1.80;;;11.60;99.90;;;;;;4190491;28;20513;-73
2023/03/10 09:06:35;;;;;;;9.88;2.28;;;11.60;99.90;;;;;;4185407;28;20491;-73
2023/03/10 09:08:35;;;;;;;7.20;1.88;;;11.70;99.90;;;;;;4188265;28;20041;-69
2023/03/10 09:10:39;;;;;;;8.85;2.45;;;11.70;99.90;;;;;;4185700;28;20048;-72
2023/03/10 09:12:39;;;;;;;11.65;3.03;;;11.70;99.90;;;;;;4184726;28;20048;-73
2023/03/10 09:14:40;;;;;;;10.50;2.65;;;11.70;99.90;;;;;;4187136;28;20045;-73
2023/03/10 09:16:41;;;;;;;7.45;1.98;;;11.70;99.90;;;;;;4185536;28;20178;-72
2023/03/10 09:18:42;;;;;;;7.13;2.42;;;11.70;99.90;;;;;;4189795;28;20029;-72
2023/03/10 09:20:43;;;;;;;10.13;2.33;;;11.80;99.90;;;;;;4189658;28;20430;-72
2023/03/10 09:22:44;;;;;;;10.55;3.00;;;11.80;99.90;;;;;;4186975;28;20045;-72
2023/03/10 09:24:45;;;;;;;9.82;2.97;;;11.80;99.90;;;;;;4189850;28;20036;-72
2023/03/10 09:26:45;;;;;;;12.20;3.05;;;11.80;99.90;;;;;;4187111;28;20102;-71
2023/03/10 09:28:48;;;;;;;4.30;1.73;;;11.90;99.90;;;;;;4188831;28;20115;-72
2023/03/10 09:30:49;;;;;;;9.00;2.45;;;11.90;99.90;;;;;;4188021;28;20077;-71
2023/03/10 09:32:50;;;;;;;7.78;2.45;;;12.00;99.90;;;;;;4190616;28;20124;-71
2023/03/10 09:34:51;;;;;;;9.73;2.53;;;12.00;99.90;;;;;;4179028;28;20060;-71
2023/03/10 09:36:52;;;;;;;9.55;2.42;;;12.00;99.90;;;;;;4187446;28;20121;-71
2023/03/10 09:38:52;;;;;;;12.95;2.60;;;12.00;99.90;;;;;;4187179;28;20083;-71
2023/03/10 09:41:17;;;;;;;13.45;2.88;;;12.00;99.90;;;;;;4188381;28;20123;-71
2023/03/10 09:43:19;;;;;;;12.98;2.35;;;12.00;99.90;;;;;;4187579;28;20116;-71
2023/03/10 09:45:32;;;;;;;6.97;1.97;;;12.00;99.90;;;;;;4186758;28;20673;-71
2023/03/10 09:47:57;;;;;;;9.38;2.65;;;12.00;99.90;;;;;;4188833;28;20275;-71
2023/03/10 09:50:15;;;;;;;8.82;2.60;;;12.00;99.90;;;;;;4186772;28;20098;-71
2023/03/10 09:52:51;;;;;;;10.77;2.63;;;12.10;99.90;;;;;;4187385;28;20159;-73
2023/03/10 09:55:24;;;;;;;6.20;1.85;;;12.20;99.90;;;;;;4180649;28;20041;-71
2023/03/10 09:57:26;;;;;;;8.63;2.00;;;12.20;99.90;;;;;;4186399;28;20086;-71
2023/03/10 09:59:34;;;;;;;8.32;2.38;;;12.30;99.90;;;;;;4188068;28;20071;-72
2023/03/10 10:01:36;;;;;;;12.45;2.78;;;12.30;99.90;;;;;;4182944;28;20116;-72
2023/03/10 10:03:44;;;;;;;11.45;2.78;;;12.40;99.90;;;;;;4188272;28;20387;-70
2023/03/10 10:05:47;;;;;;;7.40;2.47;;;12.40;99.90;;;;;;4186274;28;20068;-72
2023/03/10 10:07:53;;;;;;;10.50;2.45;;;12.40;99.90;;;;;;4187925;28;20040;-71
2023/03/10 10:10:01;;;;;;;11.63;2.47;;;12.40;99.90;;;;;;4183913;28;20035;-72
2023/03/10 10:12:12;;;;;;;9.00;2.53;;;12.40;99.90;;;;;;4179881;28;20036;-71
2023/03/10 10:14:20;;;;;;;9.10;2.08;;;12.40;99.90;;;;;;4183257;28;20058;-72
2023/03/10 10:16:44;;;;;;;10.15;2.58;;;12.40;99.90;;;;;;4182903;28;20080;-71
2023/03/10 10:18:56;;;;;;;9.95;2.63;;;12.30;99.90;;;;;;4186400;28;20068;-72
2023/03/10 10:21:04;;;;;;;8.48;2.00;;;12.30;99.90;;;;;;4185119;28;20067;-72
2023/03/10 10:23:23;;;;;;;6.65;2.00;;;12.30;99.90;;;;;;4188441;28;20029;-72
2023/03/10 10:25:29;;;;;;;8.40;2.20;;;12.40;99.90;;;;;;4188801;28;20056;-72
2023/03/10 10:27:30;;;;;;;12.75;2.50;;;12.30;99.90;;;;;;4186553;28;20055;-72
2023/03/10 10:29:35;;;;;;;6.68;1.77;;;12.30;99.90;;;;;;4187994;28;20222;-72
2023/03/10 10:31:35;;;;;;;8.45;2.30;;;12.30;99.90;;;;;;4187430;28;20777;-72
2023/03/10 10:34:03;;;;;;;6.90;1.90;;;12.30;99.90;;;;;;4188408;28;20098;-72
2023/03/10 10:36:04;;;;;;;6.32;1.80;;;12.30;99.90;;;;;;4186885;28;20044;-72
2023/03/10 10:38:12;;;;;;;7.03;1.80;;;12.30;99.90;;;;;;4188479;28;20438;-72